Time;durP1;ratioP1;P1;durP2;ratioP2;P2;SDS_P1;SDS_P2;PMS_P1;PMS_P2;Temp;Humidity;BMP_temperature;BMP_pressure;BME280_temperature;BME280_humidity;BME280_pressure;Samples;Min_cycle;Max_cycle;Signal;HPM_P1;HPM_P2
2021/09/17 00:00:37;;;;;;;3.03;1.60;;;;;;;;;;5099746;28;20455;-72
2021/09/17 00:03:05;;;;;;;3.70;1.27;;;;;;;;;;5099177;28;20478;-72
2021/09/17 00:05:33;;;;;;;4.93;1.50;;;;;;;;;;5099407;28;20459;-72
2021/09/17 00:08:01;;;;;;;6.37;1.83;;;;;;;;;;5098839;28;20814;-72
2021/09/17 00:10:30;;;;;;;4.73;2.10;;;;;;;;;;5099066;28;20491;-72
2021/09/17 00:13:00;;;;;;;5.87;2.30;;;;;;;;;;5099102;28;20792;-72
2021/09/17 00:15:27;;;;;;;3.50;1.70;;;;;;;;;;5099893;28;20562;-72
2021/09/17 00:17:56;;;;;;;4.83;1.40;;;;;;;;;;5099386;28;20444;-72
2021/09/17 00:20:24;;;;;;;5.50;1.70;;;;;;;;;;5099484;28;20538;-72
2021/09/17 00:22:52;;;;;;;4.87;1.50;;;;;;;;;;5098992;28;20482;-72
2021/09/17 00:25:20;;;;;;;2.27;1.00;;;;;;;;;;5099313;28;20806;-72
2021/09/17 00:27:48;;;;;;;2.13;1.00;;;;;;;;;;5099099;28;20455;-72
2021/09/17 00:30:17;;;;;;;5.53;1.03;;;;;;;;;;5098959;28;20999;-71
2021/09/17 00:32:45;;;;;;;4.37;1.20;;;;;;;;;;5098915;28;20494;-73
2021/09/17 00:35:14;;;;;;;2.83;0.97;;;;;;;;;;5088563;28;20467;-71
2021/09/17 00:37:42;;;;;;;7.43;1.50;;;;;;;;;;5078848;28;20460;-71
2021/09/17 00:40:11;;;;;;;2.90;1.60;;;;;;;;;;5070804;28;20464;-71
2021/09/17 00:42:39;;;;;;;2.43;1.07;;;;;;;;;;5077530;28;21064;-73
2021/09/17 00:45:08;;;;;;;8.27;1.40;;;;;;;;;;5078361;28;20476;-72
2021/09/17 00:47:37;;;;;;;6.77;2.13;;;;;;;;;;5078245;28;20453;-72
2021/09/17 00:50:06;;;;;;;5.70;1.40;;;;;;;;;;5078136;28;20955;-72
2021/09/17 00:52:34;;;;;;;3.30;2.23;;;;;;;;;;5078410;28;20464;-72
2021/09/17 00:55:02;;;;;;;9.27;1.40;;;;;;;;;;5076972;28;20460;-72
2021/09/17 00:57:30;;;;;;;3.50;0.80;;;;;;;;;;5077857;28;20488;-72
2021/09/17 00:59:58;;;;;;;3.93;1.10;;;;;;;;;;5078192;28;20555;-72
2021/09/17 01:02:26;;;;;;;5.10;1.37;;;;;;;;;;5077686;28;20535;-72
2021/09/17 01:04:56;;;;;;;6.70;1.40;;;;;;;;;;5077975;28;20472;-72
2021/09/17 01:07:23;;;;;;;4.30;1.20;;;;;;;;;;5077906;28;20476;-71
2021/09/17 01:09:52;;;;;;;3.77;1.17;;;;;;;;;;5078157;28;20563;-71
2021/09/17 01:12:20;;;;;;;4.50;1.00;;;;;;;;;;5078008;28;20741;-71
2021/09/17 01:14:48;;;;;;;3.67;1.30;;;;;;;;;;5076312;28;20822;-71
2021/09/17 01:17:17;;;;;;;3.43;1.03;;;;;;;;;;5077938;28;20456;-71
2021/09/17 01:19:45;;;;;;;4.70;1.23;;;;;;;;;;5077994;28;20474;-71
2021/09/17 01:22:15;;;;;;;3.33;0.80;;;;;;;;;;5077769;28;20522;-71
2021/09/17 01:24:43;;;;;;;3.30;0.83;;;;;;;;;;5077978;28;20527;-71
2021/09/17 01:27:10;;;;;;;3.33;0.90;;;;;;;;;;5077765;28;20452;-71
2021/09/17 01:29:44;;;;;;;3.90;0.77;;;;;;;;;;5077383;28;20498;-71
2021/09/17 01:32:12;;;;;;;4.13;1.30;;;;;;;;;;5077353;28;20649;-70
2021/09/17 01:34:40;;;;;;;5.00;1.07;;;;;;;;;;5077298;28;20468;-70
2021/09/17 01:37:08;;;;;;;3.33;0.90;;;;;;;;;;5077489;28;20456;-70
2021/09/17 01:39:38;;;;;;;4.20;1.00;;;;;;;;;;5077440;28;20474;-71
2021/09/17 01:42:06;;;;;;;2.43;0.63;;;;;;;;;;5077357;28;20803;-70
2021/09/17 01:44:36;;;;;;;3.97;0.70;;;;;;;;;;5077260;28;20537;-71
2021/09/17 01:47:04;;;;;;;6.00;0.80;;;;;;;;;;5077450;28;20480;-70
2021/09/17 01:49:32;;;;;;;4.70;1.47;;;;;;;;;;5075841;28;20523;-70
2021/09/17 01:52:00;;;;;;;4.60;0.80;;;;;;;;;;5076794;28;20551;-73
2021/09/17 01:54:29;;;;;;;3.00;0.80;;;;;;;;;;5077273;28;20817;-72
2021/09/17 01:56:58;;;;;;;4.50;0.73;;;;;;;;;;5077385;28;20444;-72
2021/09/17 01:59:26;;;;;;;2.83;1.00;;;;;;;;;;5076863;28;20467;-71
2021/09/17 02:01:54;;;;;;;4.13;0.90;;;;;;;;;;5077264;28;20455;-71
2021/09/17 02:04:22;;;;;;;11.20;1.63;;;;;;;;;;5077020;28;20456;-71
2021/09/17 02:06:51;;;;;;;3.90;0.90;;;;;;;;;;5077200;28;20722;-71
2021/09/17 02:09:28;;;;;;;6.77;1.30;;;;;;;;;;5076607;28;20467;-72
2021/09/17 02:11:56;;;;;;;4.53;1.10;;;;;;;;;;5076718;28;20458;-72
2021/09/17 02:14:26;;;;;;;2.13;0.90;;;;;;;;;;5091452;28;20470;-73
2021/09/17 02:16:54;;;;;;;6.57;1.00;;;;;;;;;;5077014;28;20474;-72
2021/09/17 02:19:23;;;;;;;4.50;0.80;;;;;;;;;;5076722;28;20456;-72
2021/09/17 02:21:55;;;;;;;2.97;0.80;;;;;;;;;;5076776;28;20670;-72
2021/09/17 02:24:24;;;;;;;1.13;0.53;;;;;;;;;;5076259;28;20940;-72
2021/09/17 02:26:52;;;;;;;1.93;0.70;;;;;;;;;;5076635;28;20460;-72
2021/09/17 02:29:20;;;;;;;4.70;0.77;;;;;;;;;;5076609;28;20464;-73
2021/09/17 02:31:51;;;;;;;1.20;0.70;;;;;;;;;;5076309;28;20464;-73
2021/09/17 02:34:21;;;;;;;2.23;1.23;;;;;;;;;;5076655;28;20547;-72
2021/09/17 02:36:50;;;;;;;2.27;0.70;;;;;;;;;;5076934;28;20593;-72
2021/09/17 02:39:20;;;;;;;1.73;0.70;;;;;;;;;;5076949;28;20449;-72
2021/09/17 02:41:48;;;;;;;3.97;0.70;;;;;;;;;;5076960;28;20476;-72
2021/09/17 02:44:18;;;;;;;4.47;1.10;;;;;;;;;;5076554;28;20518;-72
2021/09/17 02:46:46;;;;;;;1.83;0.90;;;;;;;;;;5076567;28;20795;-72
2021/09/17 02:49:16;;;;;;;1.50;0.60;;;;;;;;;;5076324;28;20465;-72
2021/09/17 02:51:44;;;;;;;3.80;0.77;;;;;;;;;;5076469;28;20472;-72
2021/09/17 02:54:12;;;;;;;2.00;0.73;;;;;;;;;;5068361;28;20768;-72
2021/09/17 02:56:42;;;;;;;3.70;0.80;;;;;;;;;;5076259;28;20555;-72
2021/09/17 02:59:10;;;;;;;4.73;1.77;;;;;;;;;;5075906;28;20527;-72
2021/09/17 03:01:38;;;;;;;4.73;0.93;;;;;;;;;;5076227;28;20468;-71
2021/09/17 03:04:06;;;;;;;5.20;0.80;;;;;;;;;;5075991;28;20752;-71
2021/09/17 03:06:35;;;;;;;4.13;1.10;;;;;;;;;;5078107;28;20734;-72
2021/09/17 03:09:04;;;;;;;2.90;0.50;;;;;;;;;;5080033;28;20490;-72
2021/09/17 03:11:32;;;;;;;3.57;1.20;;;;;;;;;;5079874;28;20488;-72
2021/09/17 03:14:00;;;;;;;2.50;0.80;;;;;;;;;;5080013;28;20728;-72
2021/09/17 03:16:28;;;;;;;1.70;0.60;;;;;;;;;;5080202;28;20460;-72
2021/09/17 03:18:56;;;;;;;1.60;0.67;;;;;;;;;;5079287;28;20523;-72
2021/09/17 03:21:24;;;;;;;2.47;0.90;;;;;;;;;;5080210;28;20468;-72
2021/09/17 03:23:53;;;;;;;6.93;1.83;;;;;;;;;;5080289;28;20876;-72
2021/09/17 03:26:21;;;;;;;2.43;1.10;;;;;;;;;;5079936;28;20463;-72
2021/09/17 03:28:49;;;;;;;1.40;0.60;;;;;;;;;;5078439;28;20453;-72
2021/09/17 03:31:17;;;;;;;2.50;0.60;;;;;;;;;;5079623;28;20500;-72
2021/09/17 03:33:46;;;;;;;2.57;0.60;;;;;;;;;;5079366;28;20487;-72
2021/09/17 03:36:16;;;;;;;1.63;0.70;;;;;;;;;;5079471;28;20456;-72
2021/09/17 03:38:44;;;;;;;1.93;0.67;;;;;;;;;;5079776;28;20896;-72
2021/09/17 03:41:14;;;;;;;2.23;0.60;;;;;;;;;;5080034;28;20502;-71
2021/09/17 03:43:42;;;;;;;2.40;0.80;;;;;;;;;;5079615;28;20464;-71
2021/09/17 03:46:10;;;;;;;2.70;0.70;;;;;;;;;;5079966;28;20453;-71
2021/09/17 03:48:40;;;;;;;8.10;1.27;;;;;;;;;;5080202;28;20460;-71
2021/09/17 03:51:10;;;;;;;3.57;0.90;;;;;;;;;;5078846;28;20571;-72
2021/09/17 03:53:38;;;;;;;3.30;0.73;;;;;;;;;;5079840;28;20463;-73
2021/09/17 03:56:06;;;;;;;3.80;0.80;;;;;;;;;;5080223;28;20927;-73
2021/09/17 03:58:39;;;;;;;1.50;0.60;;;;;;;;;;5079044;28;20467;-73
2021/09/17 04:01:07;;;;;;;2.90;0.80;;;;;;;;;;5078292;28;20456;-72
2021/09/17 04:03:35;;;;;;;2.20;1.13;;;;;;;;;;5078490;28;20873;-72
2021/09/17 04:06:03;;;;;;;4.13;0.67;;;;;;;;;;5077887;28;20456;-72
2021/09/17 04:08:31;;;;;;;4.20;1.23;;;;;;;;;;5079261;28;20856;-72
2021/09/17 04:10:59;;;;;;;5.93;1.13;;;;;;;;;;5078887;28;20484;-72
2021/09/17 04:13:27;;;;;;;4.90;1.00;;;;;;;;;;5079406;28;20529;-72
2021/09/17 04:15:56;;;;;;;2.37;0.80;;;;;;;;;;5079103;28;20543;-72
2021/09/17 04:18:24;;;;;;;2.17;0.70;;;;;;;;;;5079267;28;20464;-72
2021/09/17 04:20:52;;;;;;;4.70;0.80;;;;;;;;;;5079489;28;20456;-73
2021/09/17 04:23:20;;;;;;;3.83;0.80;;;;;;;;;;5079335;28;21292;-72
2021/09/17 04:25:48;;;;;;;1.87;0.77;;;;;;;;;;5078747;28;20466;-72
2021/09/17 04:28:16;;;;;;;1.67;0.87;;;;;;;;;;5079009;28;20559;-73
2021/09/17 04:30:44;;;;;;;4.17;0.97;;;;;;;;;;5078976;28;20496;-73
2021/09/17 04:33:16;;;;;;;1.43;0.57;;;;;;;;;;5078769;28;20469;-73
2021/09/17 04:35:44;;;;;;;3.67;0.97;;;;;;;;;;5077765;28;20467;-73
2021/09/17 04:38:14;;;;;;;2.37;0.60;;;;;;;;;;5078403;28;20808;-72
2021/09/17 04:40:42;;;;;;;1.60;0.70;;;;;;;;;;5078534;28;20474;-72
2021/09/17 04:43:11;;;;;;;8.10;0.80;;;;;;;;;;5078282;28;20818;-72
2021/09/17 04:45:39;;;;;;;3.40;0.60;;;;;;;;;;5078595;28;20475;-72
2021/09/17 04:48:11;;;;;;;2.37;0.67;;;;;;;;;;5077859;28;21018;-72
2021/09/17 04:50:42;;;;;;;2.60;0.70;;;;;;;;;;5077479;28;20948;-72
2021/09/17 04:53:14;;;;;;;4.37;0.80;;;;;;;;;;5077722;28;20752;-72
2021/09/17 04:55:42;;;;;;;1.53;0.60;;;;;;;;;;5078703;28;20453;-72
2021/09/17 04:58:10;;;;;;;2.30;0.80;;;;;;;;;;5078194;28;20465;-72
2021/09/17 05:00:41;;;;;;;2.50;1.20;;;;;;;;;;5077859;28;20460;-72
2021/09/17 05:03:09;;;;;;;1.87;0.70;;;;;;;;;;5077065;28;20464;-73
2021/09/17 05:05:37;;;;;;;5.27;1.10;;;;;;;;;;5077510;28;20875;-72
2021/09/17 05:08:07;;;;;;;1.93;0.70;;;;;;;;;;5077677;28;20971;-72
2021/09/17 05:10:36;;;;;;;7.53;1.43;;;;;;;;;;5076352;28;20492;-72
2021/09/17 05:13:05;;;;;;;5.03;0.80;;;;;;;;;;5076711;28;20471;-72
2021/09/17 05:15:34;;;;;;;1.10;0.50;;;;;;;;;;5075968;28;20452;-72
2021/09/17 05:18:02;;;;;;;10.70;1.23;;;;;;;;;;5076012;28;20460;-72
2021/09/17 05:20:39;;;;;;;1.53;0.83;;;;;;;;;;5075797;28;20464;-72
2021/09/17 05:23:09;;;;;;;3.37;0.90;;;;;;;;;;5089448;28;20459;-72
2021/09/17 05:25:37;;;;;;;2.27;0.80;;;;;;;;;;5095513;28;20460;-72
2021/09/17 05:28:05;;;;;;;2.57;0.83;;;;;;;;;;5094915;28;20466;-72
2021/09/17 05:30:35;;;;;;;2.30;0.60;;;;;;;;;;5086836;28;20477;-71
2021/09/17 05:33:07;;;;;;;6.70;0.80;;;;;;;;;;5089083;28;20463;-72
2021/09/17 05:35:35;;;;;;;3.27;0.70;;;;;;;;;;5094756;28;20458;-74
2021/09/17 05:38:06;;;;;;;3.30;1.30;;;;;;;;;;5094553;28;20530;-74
2021/09/17 05:40:55;;;;;;;1.10;0.50;;;;;;;;;;5093347;28;20466;-73
2021/09/17 05:43:26;;;;;;;3.23;0.80;;;;;;;;;;5093930;28;20456;-73
2021/09/17 05:45:54;;;;;;;2.77;0.70;;;;;;;;;;5093687;28;20448;-73
2021/09/17 05:48:23;;;;;;;1.73;0.50;;;;;;;;;;5094793;28;20459;-72
2021/09/17 05:50:52;;;;;;;4.50;0.83;;;;;;;;;;5095089;28;20747;-72
2021/09/17 05:53:19;;;;;;;1.50;0.60;;;;;;;;;;5094487;28;20455;-73
2021/09/17 05:55:49;;;;;;;2.47;0.60;;;;;;;;;;5077950;28;20921;-72
2021/09/17 05:58:17;;;;;;;2.20;0.50;;;;;;;;;;5074803;28;20597;-71
2021/09/17 06:00:45;;;;;;;1.90;0.53;;;;;;;;;;5073732;28;20559;-71
2021/09/17 06:03:13;;;;;;;1.30;0.60;;;;;;;;;;5074368;28;20460;-71
2021/09/17 06:05:41;;;;;;;3.73;0.70;;;;;;;;;;5074957;28;20601;-71
2021/09/17 06:08:09;;;;;;;2.40;0.60;;;;;;;;;;5074564;28;20555;-71
2021/09/17 06:10:37;;;;;;;2.53;0.70;;;;;;;;;;5075242;28;20492;-71
2021/09/17 06:13:06;;;;;;;1.93;0.50;;;;;;;;;;5073731;28;20464;-71
2021/09/17 06:15:34;;;;;;;4.40;0.70;;;;;;;;;;5074998;28;20448;-71
2021/09/17 06:18:02;;;;;;;4.60;1.57;;;;;;;;;;5090894;28;20456;-72
2021/09/17 06:20:33;;;;;;;5.13;0.70;;;;;;;;;;5095313;28;20463;-72
2021/09/17 06:23:01;;;;;;;1.83;0.60;;;;;;;;;;5094852;28;20455;-72
2021/09/17 06:25:33;;;;;;;1.73;0.90;;;;;;;;;;5094385;28;20874;-71
2021/09/17 06:28:05;;;;;;;2.90;0.60;;;;;;;;;;5094168;28;20451;-72
2021/09/17 06:30:37;;;;;;;2.03;0.90;;;;;;;;;;5084773;28;20543;-71
2021/09/17 06:33:07;;;;;;;1.87;0.50;;;;;;;;;;5094676;28;20910;-70
2021/09/17 06:35:39;;;;;;;1.17;0.47;;;;;;;;;;5095614;28;20509;-71
2021/09/17 06:38:07;;;;;;;2.43;1.13;;;;;;;;;;5095309;28;20557;-72
2021/09/17 06:40:36;;;;;;;1.00;0.50;;;;;;;;;;5091307;28;21629;-70
2021/09/17 06:43:05;;;;;;;1.50;0.93;;;;;;;;;;5093835;28;20741;-70
2021/09/17 06:45:44;;;;;;;1.60;0.67;;;;;;;;;;5094457;28;20520;-72
2021/09/17 06:48:12;;;;;;;1.30;0.60;;;;;;;;;;5094361;28;20534;-70
2021/09/17 06:50:40;;;;;;;1.50;0.50;;;;;;;;;;5098113;28;20462;-70
2021/09/17 06:53:08;;;;;;;2.30;1.00;;;;;;;;;;5115125;28;20809;-70
2021/09/17 06:55:36;;;;;;;1.73;0.60;;;;;;;;;;5115097;28;21100;-71
2021/09/17 06:58:05;;;;;;;1.93;0.90;;;;;;;;;;5084446;28;20474;-70
2021/09/17 07:00:36;;;;;;;1.40;0.50;;;;;;;;;;5098381;28;20538;-71
2021/09/17 07:03:05;;;;;;;2.70;0.90;;;;;;;;;;5116204;28;20462;-71
2021/09/17 07:05:33;;;;;;;1.67;0.50;;;;;;;;;;5114161;28;20490;-73
2021/09/17 07:08:03;;;;;;;1.20;0.50;;;;;;;;;;5114462;28;20465;-71
2021/09/17 07:10:33;;;;;;;2.57;0.67;;;;;;;;;;5115850;28;20570;-73
2021/09/17 07:13:04;;;;;;;1.60;0.60;;;;;;;;;;5114692;28;20551;-73
2021/09/17 07:15:35;;;;;;;1.40;0.93;;;;;;;;;;5114534;28;20785;-72
2021/09/17 07:18:05;;;;;;;1.37;0.60;;;;;;;;;;5114400;28;20455;-71
2021/09/17 07:20:33;;;;;;;4.03;0.70;;;;;;;;;;5104160;28;20448;-72
2021/09/17 07:23:01;;;;;;;1.00;0.40;;;;;;;;;;5094707;28;20447;-71
2021/09/17 07:25:32;;;;;;;1.30;0.60;;;;;;;;;;5076486;28;20440;-71
2021/09/17 07:28:06;;;;;;;1.83;0.60;;;;;;;;;;5086584;28;20601;-71
2021/09/17 07:33:29;;;;;;;2.00;0.53;;;;;;;;;;5089109;28;20859;-71
2021/09/17 07:35:58;;;;;;;2.37;0.50;;;;;;;;;;5093256;28;20440;-70
2021/09/17 07:38:28;;;;;;;4.03;0.50;;;;;;;;;;5085217;28;20744;-70
2021/09/17 07:40:56;;;;;;;1.50;0.70;;;;;;;;;;5073758;28;20452;-73
2021/09/17 07:43:24;;;;;;;1.17;0.50;;;;;;;;;;5074067;28;20872;-71
2021/09/17 07:45:54;;;;;;;1.60;0.50;;;;;;;;;;5074224;28;20721;-70
2021/09/17 07:48:24;;;;;;;1.63;0.60;;;;;;;;;;5091870;28;20451;-69
2021/09/17 07:50:52;;;;;;;2.53;0.63;;;;;;;;;;5073079;28;20492;-70
2021/09/17 07:53:23;;;;;;;1.53;1.13;;;;;;;;;;5075680;28;20506;-70
2021/09/17 07:55:53;;;;;;;1.30;0.80;;;;;;;;;;5081285;28;20452;-71
2021/09/17 07:58:21;;;;;;;1.30;0.47;;;;;;;;;;5078518;28;20551;-71
2021/09/17 08:00:51;;;;;;;1.07;0.50;;;;;;;;;;5076956;28;21059;-71
2021/09/17 08:03:29;;;;;;;3.00;0.60;;;;;;;;;;5080932;28;20517;-72
2021/09/17 08:05:58;;;;;;;2.17;0.70;;;;;;;;;;5097269;27;20463;-71
2021/09/17 08:08:26;;;;;;;1.63;0.70;;;;;;;;;;5089984;28;20455;-71
2021/09/17 08:10:54;;;;;;;1.30;0.60;;;;;;;;;;5077102;28;20452;-71
2021/09/17 08:13:23;;;;;;;1.10;0.40;;;;;;;;;;5075720;28;20464;-72
2021/09/17 08:15:51;;;;;;;1.43;0.80;;;;;;;;;;5076497;28;20452;-72
2021/09/17 08:18:22;;;;;;;2.30;0.50;;;;;;;;;;5076716;28;20464;-72
2021/09/17 08:20:51;;;;;;;1.00;0.40;;;;;;;;;;5078675;28;20964;-72
2021/09/17 08:23:27;;;;;;;1.40;0.50;;;;;;;;;;5098754;27;20550;-72
2021/09/17 08:25:56;;;;;;;1.10;0.50;;;;;;;;;;5093809;28;20483;-71
2021/09/17 08:28:44;;;;;;;1.20;0.60;;;;;;;;;;5096768;28;20455;-72
2021/09/17 08:34:21;;;;;;;1.20;0.50;;;;;;;;;;5087960;28;20624;-72
2021/09/17 08:39:53;;;;;;;2.80;0.70;;;;;;;;;;5070818;28;20456;-70
2021/09/17 08:42:24;;;;;;;1.10;0.50;;;;;;;;;;5095517;28;20455;-71
2021/09/17 08:44:52;;;;;;;2.23;0.90;;;;;;;;;;5093865;28;21108;-71
2021/09/17 08:47:20;;;;;;;1.67;1.07;;;;;;;;;;5096933;28;20538;-71
2021/09/17 08:49:54;;;;;;;2.67;0.70;;;;;;;;;;5099087;28;20455;-71
2021/09/17 08:52:23;;;;;;;5.20;0.80;;;;;;;;;;5098357;28;20583;-71
2021/09/17 08:54:55;;;;;;;1.50;0.50;;;;;;;;;;5097041;28;20852;-72
2021/09/17 08:57:26;;;;;;;1.10;0.50;;;;;;;;;;5103909;28;20882;-70
2021/09/17 08:59:55;;;;;;;2.03;0.70;;;;;;;;;;5095612;28;20551;-72
2021/09/17 09:02:43;;;;;;;;;;;;;;;;;;;;;
2021/09/17 09:05:11;;;;;;;1.30;0.50;;;;;;;;;;5108521;28;20463;-72
2021/09/17 09:07:49;;;;;;;1.10;0.50;;;;;;;;;;5099958;28;20452;-73
2021/09/17 09:10:21;;;;;;;2.40;0.90;;;;;;;;;;5096682;28;20464;-71
2021/09/17 09:12:50;;;;;;;1.93;0.60;;;;;;;;;;5094123;28;20548;-72
2021/09/17 09:15:21;;;;;;;1.40;0.50;;;;;;;;;;5094847;28;20533;-72
2021/09/17 09:17:50;;;;;;;1.37;0.43;;;;;;;;;;5093192;28;20475;-73
2021/09/17 09:20:48;;;;;;;3.00;0.60;;;;;;;;;;5096829;28;20964;-70
2021/09/17 09:23:33;;;;;;;1.10;0.40;;;;;;;;;;5093952;28;20510;-71
2021/09/17 09:26:22;;;;;;;1.40;0.60;;;;;;;;;;5091916;28;20448;-72
2021/09/17 09:28:53;;;;;;;1.00;0.40;;;;;;;;;;5090925;28;20585;-71
2021/09/17 09:31:24;;;;;;;1.20;0.40;;;;;;;;;;5095399;28;20454;-72
2021/09/17 09:33:56;;;;;;;2.10;0.50;;;;;;;;;;5093178;28;20526;-71
2021/09/17 09:36:24;;;;;;;1.93;0.60;;;;;;;;;;5089549;28;20491;-70
2021/09/17 09:38:53;;;;;;;2.03;0.60;;;;;;;;;;5084405;28;20463;-71
2021/09/17 09:41:25;;;;;;;1.10;0.40;;;;;;;;;;5075135;28;20457;-71
2021/09/17 09:43:56;;;;;;;1.40;0.60;;;;;;;;;;5090383;28;20459;-71
2021/09/17 09:46:26;;;;;;;1.90;0.47;;;;;;;;;;5096166;28;21030;-71
2021/09/17 09:49:09;;;;;;;1.20;0.50;;;;;;;;;;5091889;28;20464;-72
2021/09/17 09:51:39;;;;;;;1.63;0.50;;;;;;;;;;5096129;28;20522;-72
2021/09/17 09:54:08;;;;;;;1.20;0.50;;;;;;;;;;5095442;28;20814;-71
2021/09/17 09:56:38;;;;;;;1.10;0.50;;;;;;;;;;5092028;28;20883;-71
2021/09/17 09:59:10;;;;;;;1.30;0.60;;;;;;;;;;5100555;27;20725;-72
2021/09/17 10:01:40;;;;;;;4.03;2.80;;;;;;;;;;5094044;27;20448;-72
2021/09/17 10:04:09;;;;;;;1.60;0.50;;;;;;;;;;5090806;28;20907;-71
2021/09/17 10:06:38;;;;;;;1.23;0.60;;;;;;;;;;5093846;28;20481;-73
2021/09/17 10:09:10;;;;;;;2.50;1.03;;;;;;;;;;5093432;28;20459;-72
2021/09/17 10:11:52;;;;;;;1.20;0.50;;;;;;;;;;5079901;28;20480;-72
2021/09/17 10:14:25;;;;;;;2.20;0.77;;;;;;;;;;5086697;28;20915;-72
2021/09/17 10:16:56;;;;;;;2.07;0.70;;;;;;;;;;5084565;28;20919;-73
2021/09/17 10:19:25;;;;;;;1.10;0.50;;;;;;;;;;5087413;28;21108;-73
2021/09/17 10:25:18;;;;;;;2.30;1.17;;;;;;;;;;5058371;28;20543;-72
2021/09/17 10:31:18;;;;;;;1.23;0.60;;;;;;;;;;5053953;28;20459;-72
2021/09/17 10:33:47;;;;;;;1.00;0.40;;;;;;;;;;5077451;28;20483;-71
2021/09/17 10:36:15;;;;;;;1.40;0.60;;;;;;;;;;5099677;27;20529;-72
2021/09/17 10:38:44;;;;;;;1.57;0.60;;;;;;;;;;5093431;28;20474;-72
2021/09/17 10:41:12;;;;;;;1.60;0.80;;;;;;;;;;5095153;28;20467;-71
2021/09/17 10:43:46;;;;;;;1.10;0.50;;;;;;;;;;5093262;28;20463;-72
2021/09/17 10:46:31;;;;;;;1.10;0.60;;;;;;;;;;5093792;28;20456;-72
2021/09/17 10:49:00;;;;;;;1.07;0.53;;;;;;;;;;5094956;28;20917;-71
2021/09/17 10:51:44;;;;;;;2.60;0.50;;;;;;;;;;5092540;28;20459;-73
2021/09/17 10:54:12;;;;;;;1.10;0.40;;;;;;;;;;5082959;28;20455;-72
2021/09/17 10:57:09;;;;;;;3.80;0.77;;;;;;;;;;5094782;28;20502;-72
2021/09/17 10:59:42;;;;;;;1.10;0.50;;;;;;;;;;5092061;28;20528;-72
2021/09/17 11:02:14;;;;;;;1.63;0.60;;;;;;;;;;5091851;28;20455;-72
2021/09/17 11:04:43;;;;;;;1.50;0.77;;;;;;;;;;5089898;28;20635;-72
2021/09/17 11:07:32;;;;;;;1.40;0.67;;;;;;;;;;5079847;28;20460;-71
2021/09/17 11:10:03;;;;;;;1.27;0.53;;;;;;;;;;5088003;28;20479;-71
2021/09/17 11:12:34;;;;;;;6.00;0.60;;;;;;;;;;5093359;28;21126;-71
2021/09/17 11:15:12;;;;;;;1.20;0.60;;;;;;;;;;5087878;28;20447;-71
2021/09/17 11:17:45;;;;;;;1.23;0.50;;;;;;;;;;5092469;28;20459;-70
2021/09/17 11:20:19;;;;;;;1.37;0.60;;;;;;;;;;5092524;28;20524;-70
2021/09/17 11:22:56;;;;;;;1.23;0.50;;;;;;;;;;5083682;28;20460;-71
2021/09/17 11:25:41;;;;;;;1.10;0.40;;;;;;;;;;5093467;28;20459;-71
2021/09/17 11:28:10;;;;;;;2.70;1.37;;;;;;;;;;5090924;28;20546;-71
2021/09/17 11:30:42;;;;;;;1.93;0.60;;;;;;;;;;5078468;27;20737;-72
2021/09/17 11:33:36;;;;;;;1.90;0.90;;;;;;;;;;5087994;28;20487;-73
2021/09/17 11:36:04;;;;;;;1.20;0.50;;;;;;;;;;5097210;28;20455;-72
2021/09/17 11:38:39;;;;;;;1.07;0.40;;;;;;;;;;5097465;28;20557;-72
2021/09/17 11:41:11;;;;;;;1.50;0.73;;;;;;;;;;5096871;27;20451;-71
2021/09/17 11:43:49;;;;;;;4.13;0.60;;;;;;;;;;5098105;28;20558;-70
2021/09/17 11:46:25;;;;;;;2.17;1.13;;;;;;;;;;5099037;28;20971;-71
2021/09/17 11:48:55;;;;;;;3.23;0.53;;;;;;;;;;5096992;28;20487;-72
2021/09/17 11:51:23;;;;;;;1.30;0.70;;;;;;;;;;5097032;27;20468;-72
2021/09/17 11:53:52;;;;;;;1.57;0.70;;;;;;;;;;5097272;28;20574;-71
2021/09/17 11:56:23;;;;;;;1.30;0.50;;;;;;;;;;5098464;28;20554;-72
2021/09/17 11:58:53;;;;;;;1.17;0.53;;;;;;;;;;5096775;28;20801;-71
2021/09/17 12:01:24;;;;;;;1.20;0.53;;;;;;;;;;5098490;28;20466;-72
2021/09/17 12:03:53;;;;;;;1.67;1.23;;;;;;;;;;5097824;28;20469;-72
2021/09/17 12:06:31;;;;;;;1.47;0.70;;;;;;;;;;5097086;28;20553;-71
2021/09/17 12:09:03;;;;;;;1.77;1.03;;;;;;;;;;5079142;28;20487;-71
2021/09/17 12:11:31;;;;;;;1.80;0.93;;;;;;;;;;5076219;28;20452;-72
2021/09/17 12:14:01;;;;;;;1.50;0.70;;;;;;;;;;5094390;28;20513;-71
2021/09/17 12:16:29;;;;;;;1.40;0.60;;;;;;;;;;5097132;28;20532;-71
2021/09/17 12:19:03;;;;;;;1.43;0.60;;;;;;;;;;5094472;28;20465;-70
2021/09/17 12:21:35;;;;;;;1.73;0.70;;;;;;;;;;5096911;28;20462;-71
2021/09/17 12:24:19;;;;;;;1.70;0.63;;;;;;;;;;5086425;27;20902;-70
2021/09/17 12:26:55;;;;;;;1.30;0.50;;;;;;;;;;5077824;28;20459;-71
2021/09/17 12:29:24;;;;;;;1.73;0.70;;;;;;;;;;5096388;28;20782;-71
2021/09/17 12:31:55;;;;;;;2.20;0.60;;;;;;;;;;5081633;28;20564;-71
2021/09/17 12:34:26;;;;;;;2.10;1.17;;;;;;;;;;5096613;28;20483;-70
2021/09/17 12:36:59;;;;;;;1.70;0.67;;;;;;;;;;5077164;28;20445;-72
2021/09/17 12:39:34;;;;;;;1.97;0.53;;;;;;;;;;5095391;28;20478;-70
2021/09/17 12:42:09;;;;;;;2.60;0.80;;;;;;;;;;5095310;28;20470;-71
2021/09/17 12:44:42;;;;;;;1.70;0.80;;;;;;;;;;5098943;27;20520;-72
2021/09/17 12:47:12;;;;;;;1.47;0.57;;;;;;;;;;5098881;27;20864;-72
2021/09/17 12:49:47;;;;;;;1.87;1.03;;;;;;;;;;5076890;28;20460;-71
2021/09/17 12:52:42;;;;;;;8.93;1.17;;;;;;;;;;5090171;28;20525;-72
2021/09/17 12:58:19;;;;;;;2.67;1.83;;;;;;;;;;5097091;28;21120;-71
2021/09/17 13:00:52;;;;;;;2.07;0.77;;;;;;;;;;5098126;28;20486;-72
2021/09/17 13:03:24;;;;;;;1.90;0.77;;;;;;;;;;5097060;28;20452;-71
2021/09/17 13:05:53;;;;;;;2.53;0.60;;;;;;;;;;5076073;28;20436;-71
2021/09/17 13:08:21;;;;;;;1.67;0.80;;;;;;;;;;5090810;28;20538;-71
2021/09/17 13:10:49;;;;;;;2.07;0.70;;;;;;;;;;5095588;28;20444;-71
2021/09/17 13:13:20;;;;;;;1.20;0.50;;;;;;;;;;5096370;28;20884;-70
2021/09/17 13:15:48;;;;;;;1.10;0.50;;;;;;;;;;5097980;28;20451;-71
2021/09/17 13:18:23;;;;;;;1.93;0.80;;;;;;;;;;5097105;28;20802;-71
2021/09/17 13:20:54;;;;;;;1.10;0.60;;;;;;;;;;5100118;28;20458;-70
2021/09/17 13:23:36;;;;;;;1.50;0.60;;;;;;;;;;5098241;28;20523;-71
2021/09/17 13:26:10;;;;;;;1.40;0.70;;;;;;;;;;5094969;28;20488;-70
2021/09/17 13:28:40;;;;;;;2.50;0.70;;;;;;;;;;5089369;28;20538;-72
2021/09/17 13:31:11;;;;;;;1.83;0.70;;;;;;;;;;5095931;28;20851;-73
2021/09/17 13:33:39;;;;;;;1.20;0.60;;;;;;;;;;5096604;28;20903;-72
2021/09/17 13:36:07;;;;;;;1.70;0.60;;;;;;;;;;5095577;28;20532;-72
2021/09/17 13:38:35;;;;;;;2.30;0.60;;;;;;;;;;5096447;28;20455;-72
2021/09/17 13:41:03;;;;;;;2.10;0.70;;;;;;;;;;5077714;28;21561;-72
2021/09/17 13:43:39;;;;;;;1.63;0.77;;;;;;;;;;5076279;28;20453;-71
2021/09/17 13:46:11;;;;;;;1.20;0.53;;;;;;;;;;5090358;27;20537;-72
2021/09/17 13:48:39;;;;;;;1.70;0.70;;;;;;;;;;5098412;28;20558;-70
2021/09/17 13:51:10;;;;;;;1.57;0.60;;;;;;;;;;5099838;28;20546;-71
2021/09/17 13:53:41;;;;;;;6.60;0.70;;;;;;;;;;5096452;28;20483;-70
2021/09/17 13:56:10;;;;;;;2.10;0.67;;;;;;;;;;5091774;28;20474;-71
2021/09/17 13:58:40;;;;;;;1.50;0.50;;;;;;;;;;5094760;27;20475;-70
2021/09/17 14:01:15;;;;;;;1.10;0.40;;;;;;;;;;5075830;28;20495;-70
2021/09/17 14:03:43;;;;;;;1.97;0.50;;;;;;;;;;5078050;28;20951;-69
2021/09/17 14:06:11;;;;;;;3.00;0.70;;;;;;;;;;5081001;28;20441;-71
2021/09/17 14:08:39;;;;;;;1.03;0.43;;;;;;;;;;5085513;28;20554;-69
2021/09/17 14:11:08;;;;;;;2.07;0.77;;;;;;;;;;5085674;28;20519;-72
2021/09/17 14:13:36;;;;;;;1.33;0.57;;;;;;;;;;5083725;28;20807;-70
2021/09/17 14:16:07;;;;;;;1.83;0.50;;;;;;;;;;5090207;27;20468;-70
2021/09/17 14:18:38;;;;;;;1.50;0.53;;;;;;;;;;5083100;28;20460;-70
2021/09/17 14:21:24;;;;;;;1.77;0.70;;;;;;;;;;5084926;28;20460;-68
2021/09/17 14:24:16;;;;;;;1.43;0.87;;;;;;;;;;5085373;28;20463;-71
2021/09/17 14:27:02;;;;;;;1.43;0.70;;;;;;;;;;5080596;28;20579;-71
2021/09/17 14:29:46;;;;;;;1.10;0.50;;;;;;;;;;5093805;28;20747;-72
2021/09/17 14:32:47;;;;;;;1.97;0.70;;;;;;;;;;5094434;28;21097;-70
2021/09/17 14:35:27;;;;;;;1.33;0.57;;;;;;;;;;5078711;28;20567;-71
2021/09/17 14:38:09;;;;;;;1.80;1.07;;;;;;;;;;5076515;28;20459;-69
2021/09/17 14:40:50;;;;;;;2.27;0.93;;;;;;;;;;5077509;28;20458;-71
2021/09/17 14:46:47;;;;;;;1.63;0.80;;;;;;;;;;5046645;28;20555;-70
2021/09/17 14:49:52;;;;;;;1.40;0.70;;;;;;;;;;5075702;28;20487;-71
2021/09/17 14:52:40;;;;;;;1.90;0.83;;;;;;;;;;5086088;28;20451;-72
2021/09/17 14:58:13;;;;;;;1.80;0.60;;;;;;;;;;5083281;28;20535;-71
2021/09/17 15:00:46;;;;;;;1.93;0.50;;;;;;;;;;5080237;28;20464;-71
2021/09/17 15:03:15;;;;;;;1.60;0.80;;;;;;;;;;5072489;28;20475;-71
2021/09/17 15:05:43;;;;;;;1.30;0.60;;;;;;;;;;5084076;28;20448;-70
2021/09/17 15:08:19;;;;;;;1.10;0.50;;;;;;;;;;5091722;28;20455;-70
2021/09/17 15:10:47;;;;;;;1.80;0.70;;;;;;;;;;5094121;28;20451;-71
2021/09/17 15:13:18;;;;;;;1.53;0.70;;;;;;;;;;5086701;28;20693;-70
2021/09/17 15:15:49;;;;;;;1.27;0.70;;;;;;;;;;5087142;28;20455;-70
2021/09/17 15:18:21;;;;;;;1.20;0.53;;;;;;;;;;5090413;28;20521;-73
2021/09/17 15:20:52;;;;;;;1.30;0.63;;;;;;;;;;5081323;28;20517;-71
2021/09/17 15:23:24;;;;;;;2.07;0.70;;;;;;;;;;5083133;28;20463;-74
2021/09/17 15:25:53;;;;;;;2.10;0.77;;;;;;;;;;5093521;28;20452;-72
2021/09/17 15:28:34;;;;;;;1.70;0.50;;;;;;;;;;5088112;28;20535;-71
2021/09/17 15:34:13;;;;;;;6.70;1.07;;;;;;;;;;5094153;28;20471;-70